sensor_id;sensor_type;location;lat;lon;timestamp;pressure;altitude;pressure_sealevel;temperature;humidity
49611;BME280;35515;48.766;9.176;2023-09-30T00:01:39;99184.88;;;18.15;81.05
49611;BME280;35515;48.766;9.176;2023-09-30T00:04:05;99195.34;;;18.18;80.57
49611;BME280;35515;48.766;9.176;2023-09-30T00:06:32;99185.59;;;18.22;80.46
49611;BME280;35515;48.766;9.176;2023-09-30T00:09:00;99180.81;;;18.29;80.10
49611;BME280;35515;48.766;9.176;2023-09-30T00:11:27;99169.16;;;18.22;80.55
49611;BME280;35515;48.766;9.176;2023-09-30T00:13:54;99170.09;;;18.28;80.30
49611;BME280;35515;48.766;9.176;2023-09-30T00:16:20;99161.50;;;18.12;80.83
49611;BME280;35515;48.766;9.176;2023-09-30T00:18:47;99157.19;;;18.16;80.74
49611;BME280;35515;48.766;9.176;2023-09-30T00:21:13;99162.22;;;18.19;80.34
49611;BME280;35515;48.766;9.176;2023-09-30T00:23:41;99168.03;;;18.11;80.74
49611;BME280;35515;48.766;9.176;2023-09-30T00:26:08;99167.47;;;18.09;80.61
49611;BME280;35515;48.766;9.176;2023-09-30T00:28:35;99164.72;;;18.33;79.72
49611;BME280;35515;48.766;9.176;2023-09-30T00:31:06;99170.69;;;18.06;81.33
49611;BME280;35515;48.766;9.176;2023-09-30T00:33:34;99169.97;;;17.99;81.90
49611;BME280;35515;48.766;9.176;2023-09-30T00:36:05;99181.88;;;17.93;82.26
49611;BME280;35515;48.766;9.176;2023-09-30T00:38:32;99186.66;;;18.09;81.90
49611;BME280;35515;48.766;9.176;2023-09-30T00:40:58;99175.94;;;17.96;82.43
49611;BME280;35515;48.766;9.176;2023-09-30T00:43:26;99185.47;;;18.05;81.60
49611;BME280;35515;48.766;9.176;2023-09-30T00:46:01;99178.75;;;17.89;82.84
49611;BME280;35515;48.766;9.176;2023-09-30T00:48:29;99181.28;;;18.02;82.01
49611;BME280;35515;48.766;9.176;2023-09-30T00:50:56;99182.00;;;17.98;82.36
49611;BME280;35515;48.766;9.176;2023-09-30T00:53:23;99191.75;;;17.94;83.34
49611;BME280;35515;48.766;9.176;2023-09-30T00:55:50;99186.41;;;17.99;83.39
49611;BME280;35515;48.766;9.176;2023-09-30T00:58:17;99186.66;;;18.09;83.20
49611;BME280;35515;48.766;9.176;2023-09-30T01:00:46;99184.84;;;18.03;84.69
49611;BME280;35515;48.766;9.176;2023-09-30T01:03:13;99180.00;;;18.05;85.32
49611;BME280;35515;48.766;9.176;2023-09-30T01:05:40;99188.78;;;18.07;85.56
49611;BME280;35515;48.766;9.176;2023-09-30T01:08:08;99183.63;;;17.87;87.22
49611;BME280;35515;48.766;9.176;2023-09-30T01:10:34;99189.06;;;17.75;88.52
49611;BME280;35515;48.766;9.176;2023-09-30T01:13:01;99193.97;;;17.73;88.65
49611;BME280;35515;48.766;9.176;2023-09-30T01:15:28;99177.78;;;17.71;88.98
49611;BME280;35515;48.766;9.176;2023-09-30T01:17:56;99181.81;;;17.69;88.86
49611;BME280;35515;48.766;9.176;2023-09-30T01:20:23;99191.38;;;17.78;88.64
49611;BME280;35515;48.766;9.176;2023-09-30T01:22:51;99195.25;;;18.01;86.13
49611;BME280;35515;48.766;9.176;2023-09-30T01:25:18;99189.75;;;18.01;85.71
49611;BME280;35515;48.766;9.176;2023-09-30T01:27:44;99186.34;;;17.87;85.61
49611;BME280;35515;48.766;9.176;2023-09-30T01:30:11;99183.47;;;17.70;86.03
49611;BME280;35515;48.766;9.176;2023-09-30T01:32:39;99187.06;;;17.82;85.42
49611;BME280;35515;48.766;9.176;2023-09-30T01:35:06;99188.59;;;17.66;86.42
49611;BME280;35515;48.766;9.176;2023-09-30T01:37:33;99192.03;;;17.62;86.71
49611;BME280;35515;48.766;9.176;2023-09-30T01:40:01;99187.84;;;17.59;87.00
49611;BME280;35515;48.766;9.176;2023-09-30T01:42:29;99183.19;;;17.48;88.23
49611;BME280;35515;48.766;9.176;2023-09-30T01:44:55;99191.41;;;17.48;88.77
49611;BME280;35515;48.766;9.176;2023-09-30T01:47:23;99193.22;;;17.54;89.18
49611;BME280;35515;48.766;9.176;2023-09-30T01:49:49;99182.41;;;17.71;88.65
49611;BME280;35515;48.766;9.176;2023-09-30T01:52:16;99184.34;;;17.82;87.97
49611;BME280;35515;48.766;9.176;2023-09-30T01:54:42;99177.97;;;17.70;88.91
49611;BME280;35515;48.766;9.176;2023-09-30T01:57:10;99177.75;;;17.60;90.17
49611;BME280;35515;48.766;9.176;2023-09-30T01:59:37;99182.84;;;17.56;90.00
49611;BME280;35515;48.766;9.176;2023-09-30T02:02:04;99169.00;;;17.51;91.25
49611;BME280;35515;48.766;9.176;2023-09-30T02:04:31;99171.66;;;17.58;91.20
49611;BME280;35515;48.766;9.176;2023-09-30T02:06:57;99168.56;;;17.54;91.04
49611;BME280;35515;48.766;9.176;2023-09-30T02:09:24;99177.75;;;17.60;91.36
49611;BME280;35515;48.766;9.176;2023-09-30T02:11:50;99177.47;;;17.49;91.75
49611;BME280;35515;48.766;9.176;2023-09-30T02:14:18;99175.69;;;17.55;91.43
49611;BME280;35515;48.766;9.176;2023-09-30T02:16:45;99182.34;;;17.47;91.45
49611;BME280;35515;48.766;9.176;2023-09-30T02:19:12;99192.38;;;17.53;90.67
49611;BME280;35515;48.766;9.176;2023-09-30T02:21:39;99192.22;;;17.48;91.31
49611;BME280;35515;48.766;9.176;2023-09-30T02:24:06;99197.34;;;17.45;91.55
49611;BME280;35515;48.766;9.176;2023-09-30T02:26:33;99204.56;;;17.39;92.01
49611;BME280;35515;48.766;9.176;2023-09-30T02:28:59;99199.25;;;17.44;91.83
49611;BME280;35515;48.766;9.176;2023-09-30T02:31:26;99200.50;;;17.30;92.48
49611;BME280;35515;48.766;9.176;2023-09-30T02:33:53;99200.78;;;17.40;91.81
49611;BME280;35515;48.766;9.176;2023-09-30T02:36:19;99196.69;;;17.31;92.65
49611;BME280;35515;48.766;9.176;2023-09-30T02:38:46;99205.78;;;17.43;91.60
49611;BME280;35515;48.766;9.176;2023-09-30T02:41:15;99206.25;;;17.40;91.89
49611;BME280;35515;48.766;9.176;2023-09-30T02:43:42;99204.56;;;17.39;91.16
49611;BME280;35515;48.766;9.176;2023-09-30T02:46:09;99206.91;;;17.24;91.97
49611;BME280;35515;48.766;9.176;2023-09-30T02:48:37;99205.56;;;17.45;89.88
49611;BME280;35515;48.766;9.176;2023-09-30T02:51:03;99212.75;;;17.58;89.03
49611;BME280;35515;48.766;9.176;2023-09-30T02:53:30;99207.06;;;17.41;89.86
49611;BME280;35515;48.766;9.176;2023-09-30T02:55:56;99209.13;;;17.45;89.30
49611;BME280;35515;48.766;9.176;2023-09-30T02:58:25;99201.78;;;17.27;89.89
49611;BME280;35515;48.766;9.176;2023-09-30T03:00:51;99198.09;;;17.21;90.46
49611;BME280;35515;48.766;9.176;2023-09-30T03:03:19;99199.31;;;17.07;90.38
49611;BME280;35515;48.766;9.176;2023-09-30T03:05:48;99213.00;;;17.07;90.33
49611;BME280;35515;48.766;9.176;2023-09-30T03:08:15;99213.09;;;17.00;90.65
49611;BME280;35515;48.766;9.176;2023-09-30T03:10:41;99223.81;;;17.02;90.63
49611;BME280;35515;48.766;9.176;2023-09-30T03:13:08;99235.22;;;16.99;91.09
49611;BME280;35515;48.766;9.176;2023-09-30T03:15:35;99242.84;;;16.97;92.09
49611;BME280;35515;48.766;9.176;2023-09-30T03:18:02;99239.25;;;16.96;92.74
49611;BME280;35515;48.766;9.176;2023-09-30T03:20:29;99248.56;;;16.88;93.54
49611;BME280;35515;48.766;9.176;2023-09-30T03:22:57;99246.16;;;16.99;93.24
49611;BME280;35515;48.766;9.176;2023-09-30T03:25:24;99240.69;;;16.99;93.33
49611;BME280;35515;48.766;9.176;2023-09-30T03:27:51;99242.44;;;17.12;92.28
49611;BME280;35515;48.766;9.176;2023-09-30T03:30:18;99237.34;;;17.15;92.72
49611;BME280;35515;48.766;9.176;2023-09-30T03:32:45;99231.41;;;17.18;92.03
49611;BME280;35515;48.766;9.176;2023-09-30T03:35:12;99239.00;;;17.16;92.65
49611;BME280;35515;48.766;9.176;2023-09-30T03:37:42;99237.66;;;17.07;93.23
49611;BME280;35515;48.766;9.176;2023-09-30T03:40:11;99238.59;;;17.01;93.44
49611;BME280;35515;48.766;9.176;2023-09-30T03:42:44;99232.78;;;17.09;92.15
49611;BME280;35515;48.766;9.176;2023-09-30T03:45:11;99223.44;;;17.17;91.38
49611;BME280;35515;48.766;9.176;2023-09-30T03:47:39;99219.09;;;17.09;91.62
49611;BME280;35515;48.766;9.176;2023-09-30T03:50:07;99210.50;;;17.05;91.58
49611;BME280;35515;48.766;9.176;2023-09-30T03:52:41;99213.00;;;17.07;91.35
49611;BME280;35515;48.766;9.176;2023-09-30T03:55:10;99205.88;;;17.06;91.59
49611;BME280;35515;48.766;9.176;2023-09-30T03:57:38;99195.69;;;17.13;90.98
49611;BME280;35515;48.766;9.176;2023-09-30T04:00:06;99195.28;;;17.10;91.26
49611;BME280;35515;48.766;9.176;2023-09-30T04:02:41;99209.31;;;17.01;91.89
49611;BME280;35515;48.766;9.176;2023-09-30T04:05:09;99201.53;;;17.17;90.14
49611;BME280;35515;48.766;9.176;2023-09-30T04:07:37;99196.88;;;17.17;89.51
49611;BME280;35515;48.766;9.176;2023-09-30T04:10:04;99202.22;;;17.12;89.34
49611;BME280;35515;48.766;9.176;2023-09-30T04:12:32;99213.63;;;17.09;89.49
49611;BME280;35515;48.766;9.176;2023-09-30T04:14:58;99218.03;;;17.10;89.71
49611;BME280;35515;48.766;9.176;2023-09-30T04:17:25;99214.31;;;17.04;89.92
49611;BME280;35515;48.766;9.176;2023-09-30T04:19:52;99214.78;;;17.01;89.89
49611;BME280;35515;48.766;9.176;2023-09-30T04:22:18;99212.19;;;17.07;90.02
49611;BME280;35515;48.766;9.176;2023-09-30T04:24:46;99211.66;;;16.98;90.00
49611;BME280;35515;48.766;9.176;2023-09-30T04:27:14;99224.97;;;16.94;90.39
49611;BME280;35515;48.766;9.176;2023-09-30T04:29:42;99209.38;;;16.95;90.76
49611;BME280;35515;48.766;9.176;2023-09-30T04:32:09;99210.59;;;16.99;90.80
49611;BME280;35515;48.766;9.176;2023-09-30T04:34:36;99210.59;;;16.99;90.74
49611;BME280;35515;48.766;9.176;2023-09-30T04:37:02;99212.66;;;17.03;89.88
49611;BME280;35515;48.766;9.176;2023-09-30T04:39:29;99214.97;;;17.18;88.83
49611;BME280;35515;48.766;9.176;2023-09-30T04:42:00;99224.59;;;17.09;89.88
49611;BME280;35515;48.766;9.176;2023-09-30T04:44:28;99233.69;;;17.03;90.44
49611;BME280;35515;48.766;9.176;2023-09-30T04:46:57;99239.63;;;17.00;90.94
49611;BME280;35515;48.766;9.176;2023-09-30T04:49:25;99246.63;;;16.96;91.24
49611;BME280;35515;48.766;9.176;2023-09-30T04:51:52;99242.69;;;16.92;91.33
49611;BME280;35515;48.766;9.176;2023-09-30T04:54:19;99240.09;;;16.97;91.42
49611;BME280;35515;48.766;9.176;2023-09-30T04:56:46;99243.94;;;16.89;91.87
49611;BME280;35515;48.766;9.176;2023-09-30T04:59:13;99254.00;;;16.95;91.43
49611;BME280;35515;48.766;9.176;2023-09-30T05:01:39;99251.03;;;17.15;90.26
49611;BME280;35515;48.766;9.176;2023-09-30T05:04:07;99256.81;;;17.07;90.76
49611;BME280;35515;48.766;9.176;2023-09-30T05:06:34;99259.19;;;17.03;91.22
49611;BME280;35515;48.766;9.176;2023-09-30T05:09:01;99256.16;;;16.93;91.19
49611;BME280;35515;48.766;9.176;2023-09-30T05:11:27;99269.63;;;16.88;91.93
49611;BME280;35515;48.766;9.176;2023-09-30T05:13:54;99269.72;;;16.81;93.32
49611;BME280;35515;48.766;9.176;2023-09-30T05:16:20;99264.50;;;16.98;91.51
49611;BME280;35515;48.766;9.176;2023-09-30T05:18:47;99264.66;;;17.03;90.96
49611;BME280;35515;48.766;9.176;2023-09-30T05:21:15;99260.25;;;17.02;91.29
49611;BME280;35515;48.766;9.176;2023-09-30T05:23:42;99272.16;;;16.90;91.89
49611;BME280;35515;48.766;9.176;2023-09-30T05:26:09;99268.41;;;16.84;92.12
49611;BME280;35515;48.766;9.176;2023-09-30T05:28:36;99260.44;;;16.82;92.67
49611;BME280;35515;48.766;9.176;2023-09-30T05:31:04;99266.69;;;16.90;91.70
49611;BME280;35515;48.766;9.176;2023-09-30T05:33:31;99252.78;;;16.91;92.00
49611;BME280;35515;48.766;9.176;2023-09-30T05:35:58;99252.69;;;16.98;90.89
49611;BME280;35515;48.766;9.176;2023-09-30T05:38:26;99260.31;;;16.96;91.22
49611;BME280;35515;48.766;9.176;2023-09-30T05:40:52;99252.00;;;16.84;91.59
49611;BME280;35515;48.766;9.176;2023-09-30T05:43:20;99246.91;;;16.69;92.39
49611;BME280;35515;48.766;9.176;2023-09-30T05:45:47;99248.78;;;16.68;92.44
49611;BME280;35515;48.766;9.176;2023-09-30T05:48:20;99250.41;;;16.76;91.75
49611;BME280;35515;48.766;9.176;2023-09-30T05:50:46;99260.91;;;16.98;90.85
49611;BME280;35515;48.766;9.176;2023-09-30T05:53:13;99266.28;;;16.86;92.58
49611;BME280;35515;48.766;9.176;2023-09-30T05:55:41;99269.09;;;16.79;93.20
49611;BME280;35515;48.766;9.176;2023-09-30T05:58:08;99276.41;;;16.85;92.77
49611;BME280;35515;48.766;9.176;2023-09-30T06:00:35;99274.78;;;16.78;93.36
49611;BME280;35515;48.766;9.176;2023-09-30T06:03:02;99282.81;;;16.98;91.75
49611;BME280;35515;48.766;9.176;2023-09-30T06:05:29;99283.13;;;16.90;92.68
49611;BME280;35515;48.766;9.176;2023-09-30T06:07:57;99274.94;;;16.83;93.40
49611;BME280;35515;48.766;9.176;2023-09-30T06:10:24;99281.00;;;16.92;92.95
49611;BME280;35515;48.766;9.176;2023-09-30T06:12:53;99286.84;;;16.95;92.34
49611;BME280;35515;48.766;9.176;2023-09-30T06:15:20;99293.72;;;16.79;92.69
49611;BME280;35515;48.766;9.176;2023-09-30T06:17:51;99312.28;;;16.77;93.01
49611;BME280;35515;48.766;9.176;2023-09-30T06:20:18;99310.66;;;16.95;92.03
49611;BME280;35515;48.766;9.176;2023-09-30T06:22:45;99304.56;;;16.93;92.10
49611;BME280;35515;48.766;9.176;2023-09-30T06:25:12;99315.53;;;16.86;92.49
49611;BME280;35515;48.766;9.176;2023-09-30T06:27:41;99321.75;;;17.00;90.12
49611;BME280;35515;48.766;9.176;2023-09-30T06:30:10;99317.44;;;16.85;91.10
49611;BME280;35515;48.766;9.176;2023-09-30T06:32:37;99316.28;;;17.00;89.81
49611;BME280;35515;48.766;9.176;2023-09-30T06:35:04;99318.06;;;16.87;90.05
49611;BME280;35515;48.766;9.176;2023-09-30T06:37:33;99316.38;;;16.68;90.93
49611;BME280;35515;48.766;9.176;2023-09-30T06:40:00;99317.13;;;16.75;90.80
49611;BME280;35515;48.766;9.176;2023-09-30T06:42:28;99308.66;;;16.83;90.04
49611;BME280;35515;48.766;9.176;2023-09-30T06:44:55;99314.84;;;16.72;90.93
49611;BME280;35515;48.766;9.176;2023-09-30T06:47:23;99320.31;;;16.72;90.75
49611;BME280;35515;48.766;9.176;2023-09-30T06:49:50;99330.38;;;16.78;91.12
49611;BME280;35515;48.766;9.176;2023-09-30T06:52:16;99339.97;;;16.87;90.03
49611;BME280;35515;48.766;9.176;2023-09-30T06:54:43;99343.13;;;16.84;90.13
49611;BME280;35515;48.766;9.176;2023-09-30T06:57:10;99347.00;;;16.77;90.74
49611;BME280;35515;48.766;9.176;2023-09-30T06:59:36;99358.03;;;16.88;90.25
49611;BME280;35515;48.766;9.176;2023-09-30T07:02:03;99356.06;;;16.77;90.80
49611;BME280;35515;48.766;9.176;2023-09-30T07:04:31;99343.88;;;16.73;91.31
49611;BME280;35515;48.766;9.176;2023-09-30T07:06:58;99338.59;;;16.78;91.48
49611;BME280;35515;48.766;9.176;2023-09-30T07:09:24;99333.69;;;16.80;91.19
49611;BME280;35515;48.766;9.176;2023-09-30T07:11:52;99332.03;;;16.79;90.94
49611;BME280;35515;48.766;9.176;2023-09-30T07:14:18;99329.16;;;16.74;91.30
49611;BME280;35515;48.766;9.176;2023-09-30T07:16:45;99327.81;;;16.83;89.86
49611;BME280;35515;48.766;9.176;2023-09-30T07:19:11;99330.81;;;16.75;90.54
49611;BME280;35515;48.766;9.176;2023-09-30T07:21:39;99333.84;;;16.92;90.01
49611;BME280;35515;48.766;9.176;2023-09-30T07:24:06;99327.81;;;17.02;89.02
49611;BME280;35515;48.766;9.176;2023-09-30T07:26:33;99341.44;;;17.09;88.96
49611;BME280;35515;48.766;9.176;2023-09-30T07:28:59;99347.94;;;17.14;88.43
49611;BME280;35515;48.766;9.176;2023-09-30T07:31:26;99354.31;;;17.27;86.28
49611;BME280;35515;48.766;9.176;2023-09-30T07:33:52;99363.88;;;17.17;87.30
49611;BME280;35515;48.766;9.176;2023-09-30T07:36:19;99368.25;;;17.25;86.50
49611;BME280;35515;48.766;9.176;2023-09-30T07:38:47;99365.41;;;17.32;86.32
49611;BME280;35515;48.766;9.176;2023-09-30T07:41:14;99347.94;;;17.33;86.47
49611;BME280;35515;48.766;9.176;2023-09-30T07:43:40;99340.63;;;17.08;88.34
49611;BME280;35515;48.766;9.176;2023-09-30T07:46:07;99343.25;;;16.96;88.70
49611;BME280;35515;48.766;9.176;2023-09-30T07:48:33;99352.56;;;16.88;89.64
49611;BME280;35515;48.766;9.176;2023-09-30T07:51:00;99365.22;;;16.90;89.73
49611;BME280;35515;48.766;9.176;2023-09-30T07:53:27;99365.41;;;16.88;89.64
49611;BME280;35515;48.766;9.176;2023-09-30T07:55:54;99366.78;;;16.79;90.05
49611;BME280;35515;48.766;9.176;2023-09-30T07:58:21;99375.75;;;16.86;90.13
49611;BME280;35515;48.766;9.176;2023-09-30T08:00:48;99384.25;;;16.78;90.13
49611;BME280;35515;48.766;9.176;2023-09-30T08:03:14;99381.72;;;16.76;90.84
49611;BME280;35515;48.766;9.176;2023-09-30T08:05:42;99371.03;;;16.75;90.91
49611;BME280;35515;48.766;9.176;2023-09-30T08:08:08;99373.44;;;16.90;90.01
49611;BME280;35515;48.766;9.176;2023-09-30T08:10:35;99370.56;;;17.03;89.03
49611;BME280;35515;48.766;9.176;2023-09-30T08:13:03;99368.00;;;17.08;88.75
49611;BME280;35515;48.766;9.176;2023-09-30T08:15:30;99356.34;;;16.94;89.85
49611;BME280;35515;48.766;9.176;2023-09-30T08:17:57;99357.63;;;16.92;90.03
49611;BME280;35515;48.766;9.176;2023-09-30T08:20:23;99359.75;;;16.90;89.82
49611;BME280;35515;48.766;9.176;2023-09-30T08:22:50;99359.28;;;16.93;90.38
49611;BME280;35515;48.766;9.176;2023-09-30T08:25:16;99367.34;;;16.87;90.82
49611;BME280;35515;48.766;9.176;2023-09-30T08:27:43;99366.22;;;16.95;90.11
49611;BME280;35515;48.766;9.176;2023-09-30T08:30:12;99360.06;;;17.00;89.83
49611;BME280;35515;48.766;9.176;2023-09-30T08:32:39;99354.75;;;17.05;89.30
49611;BME280;35515;48.766;9.176;2023-09-30T08:35:07;99354.94;;;17.10;88.91
49611;BME280;35515;48.766;9.176;2023-09-30T08:37:34;99362.50;;;17.08;88.82
49611;BME280;35515;48.766;9.176;2023-09-30T08:40:01;99367.09;;;17.14;87.97
49611;BME280;35515;48.766;9.176;2023-09-30T08:42:32;99359.19;;;17.06;88.35
49611;BME280;35515;48.766;9.176;2023-09-30T08:44:59;99359.63;;;17.03;88.81
49611;BME280;35515;48.766;9.176;2023-09-30T08:47:28;99348.22;;;17.06;88.37
49611;BME280;35515;48.766;9.176;2023-09-30T08:49:56;99348.22;;;17.06;87.53
49611;BME280;35515;48.766;9.176;2023-09-30T08:52:31;99357.50;;;17.05;88.04
49611;BME280;35515;48.766;9.176;2023-09-30T08:54:58;99364.34;;;17.14;87.93
49611;BME280;35515;48.766;9.176;2023-09-30T08:57:24;99356.50;;;17.18;87.35
49611;BME280;35515;48.766;9.176;2023-09-30T08:59:53;99350.06;;;17.31;85.93
49611;BME280;35515;48.766;9.176;2023-09-30T09:02:20;99349.59;;;17.34;86.26
49611;BME280;35515;48.766;9.176;2023-09-30T09:04:47;99342.81;;;17.36;85.80
49611;BME280;35515;48.766;9.176;2023-09-30T09:07:14;99341.91;;;17.43;85.64
49611;BME280;35515;48.766;9.176;2023-09-30T09:09:41;99341.53;;;17.39;84.93
49611;BME280;35515;48.766;9.176;2023-09-30T09:12:18;99346.91;;;17.27;85.55
49611;BME280;35515;48.766;9.176;2023-09-30T09:14:45;99354.78;;;17.24;86.35
49611;BME280;35515;48.766;9.176;2023-09-30T09:17:12;99360.19;;;17.30;85.53
49611;BME280;35515;48.766;9.176;2023-09-30T09:19:39;99369.00;;;17.32;85.49
49611;BME280;35515;48.766;9.176;2023-09-30T09:22:07;99365.13;;;17.40;85.08
49611;BME280;35515;48.766;9.176;2023-09-30T09:24:34;99366.31;;;17.44;84.25
49611;BME280;35515;48.766;9.176;2023-09-30T09:27:05;99352.03;;;17.42;83.75
49611;BME280;35515;48.766;9.176;2023-09-30T09:29:32;99366.31;;;17.44;83.77
49611;BME280;35515;48.766;9.176;2023-09-30T09:32:10;99363.06;;;17.35;84.01
49611;BME280;35515;48.766;9.176;2023-09-30T09:34:37;99371.13;;;17.49;83.49
49611;BME280;35515;48.766;9.176;2023-09-30T09:37:15;99363.09;;;17.66;82.36
49611;BME280;35515;48.766;9.176;2023-09-30T09:39:52;99351.88;;;17.55;82.49
49611;BME280;35515;48.766;9.176;2023-09-30T09:42:26;99345.94;;;17.59;81.99
49611;BME280;35515;48.766;9.176;2023-09-30T09:44:59;99344.72;;;17.54;81.70
49611;BME280;35515;48.766;9.176;2023-09-30T09:47:26;99339.38;;;17.60;82.14
49611;BME280;35515;48.766;9.176;2023-09-30T09:49:52;99344.16;;;17.64;82.70
49611;BME280;35515;48.766;9.176;2023-09-30T09:52:21;99337.53;;;17.72;82.52
49611;BME280;35515;48.766;9.176;2023-09-30T09:54:48;99335.63;;;17.72;83.08
49611;BME280;35515;48.766;9.176;2023-09-30T09:57:16;99332.19;;;17.77;82.97
49611;BME280;35515;48.766;9.176;2023-09-30T09:59:44;99340.41;;;17.96;81.02
49611;BME280;35515;48.766;9.176;2023-09-30T10:02:14;99339.94;;;17.99;81.00
49611;BME280;35515;48.766;9.176;2023-09-30T10:04:41;99343.72;;;17.98;81.33
49611;BME280;35515;48.766;9.176;2023-09-30T10:07:11;99340.31;;;18.02;81.53
49611;BME280;35515;48.766;9.176;2023-09-30T10:09:45;99337.69;;;18.08;80.03
49611;BME280;35515;48.766;9.176;2023-09-30T10:12:14;99346.41;;;18.16;79.69
49611;BME280;35515;48.766;9.176;2023-09-30T10:14:41;99343.81;;;18.21;78.16
49611;BME280;35515;48.766;9.176;2023-09-30T10:17:08;99332.97;;;18.27;77.91
49611;BME280;35515;48.766;9.176;2023-09-30T10:19:34;99321.53;;;18.30;77.53
49611;BME280;35515;48.766;9.176;2023-09-30T10:22:21;99316.66;;;18.32;76.85
49611;BME280;35515;48.766;9.176;2023-09-30T10:24:50;99319.75;;;18.35;76.95
49611;BME280;35515;48.766;9.176;2023-09-30T10:27:31;99316.16;;;18.35;75.98
49611;BME280;35515;48.766;9.176;2023-09-30T10:30:05;99308.91;;;18.29;75.86
49611;BME280;35515;48.766;9.176;2023-09-30T10:33:12;99316.16;;;18.35;75.35
49611;BME280;35515;48.766;9.176;2023-09-30T10:35:46;99319.03;;;18.40;74.69
49611;BME280;35515;48.766;9.176;2023-09-30T10:38:38;99319.31;;;18.50;74.12
49611;BME280;35515;48.766;9.176;2023-09-30T10:41:10;99321.69;;;18.59;72.66
49611;BME280;35515;48.766;9.176;2023-09-30T10:43:41;99320.75;;;18.77;71.68
49611;BME280;35515;48.766;9.176;2023-09-30T10:46:30;99311.09;;;18.74;71.48
49611;BME280;35515;48.766;9.176;2023-09-30T10:49:15;99313.91;;;18.79;70.77
49611;BME280;35515;48.766;9.176;2023-09-30T10:51:43;99305.22;;;18.59;71.63
49611;BME280;35515;48.766;9.176;2023-09-30T10:54:10;99301.88;;;18.57;71.57
49611;BME280;35515;48.766;9.176;2023-09-30T10:56:40;99296.50;;;18.62;71.03
49611;BME280;35515;48.766;9.176;2023-09-30T10:59:06;99296.41;;;18.92;69.62
49611;BME280;35515;48.766;9.176;2023-09-30T11:01:35;99295.09;;;18.95;69.13
49611;BME280;35515;48.766;9.176;2023-09-30T11:04:02;99289.03;;;18.93;68.06
49611;BME280;35515;48.766;9.176;2023-09-30T11:06:30;99301.66;;;18.94;66.73
49611;BME280;35515;48.766;9.176;2023-09-30T11:08:59;99287.81;;;18.88;67.26
49611;BME280;35515;48.766;9.176;2023-09-30T11:11:36;99285.53;;;18.74;67.98
49611;BME280;35515;48.766;9.176;2023-09-30T11:14:16;99277.41;;;18.67;68.41
49611;BME280;35515;48.766;9.176;2023-09-30T11:16:43;99283.03;;;18.84;68.24
49611;BME280;35515;48.766;9.176;2023-09-30T11:19:10;99271.22;;;18.83;68.04
49611;BME280;35515;48.766;9.176;2023-09-30T11:21:36;99267.88;;;18.81;68.80
49611;BME280;35515;48.766;9.176;2023-09-30T11:24:04;99275.28;;;18.81;68.66
49611;BME280;35515;48.766;9.176;2023-09-30T11:26:32;99269.66;;;18.87;67.91
49611;BME280;35515;48.766;9.176;2023-09-30T11:29:06;99269.88;;;18.98;66.62
49611;BME280;35515;48.766;9.176;2023-09-30T11:31:33;99269.19;;;18.91;66.95
49611;BME280;35515;48.766;9.176;2023-09-30T11:34:00;99271.56;;;18.87;66.98
49611;BME280;35515;48.766;9.176;2023-09-30T11:36:29;99271.94;;;19.02;64.81
49611;BME280;35515;48.766;9.176;2023-09-30T11:38:56;99272.56;;;18.93;65.59
49611;BME280;35515;48.766;9.176;2023-09-30T11:41:32;99273.22;;;18.88;66.45
49611;BME280;35515;48.766;9.176;2023-09-30T11:44:03;99263.22;;;18.94;66.50
49611;BME280;35515;48.766;9.176;2023-09-30T11:46:47;99269.75;;;19.04;66.31
49611;BME280;35515;48.766;9.176;2023-09-30T11:49:24;99264.50;;;19.15;65.60
49611;BME280;35515;48.766;9.176;2023-09-30T11:51:51;99271.16;;;19.19;61.34
49611;BME280;35515;48.766;9.176;2023-09-30T11:54:17;99259.72;;;19.22;62.10
49611;BME280;35515;48.766;9.176;2023-09-30T11:56:44;99256.22;;;19.27;61.19
49611;BME280;35515;48.766;9.176;2023-09-30T11:59:12;99266.63;;;19.53;60.11
49611;BME280;35515;48.766;9.176;2023-09-30T12:01:41;99257.25;;;19.37;59.44
49611;BME280;35515;48.766;9.176;2023-09-30T12:04:08;99266.56;;;19.36;59.38
49611;BME280;35515;48.766;9.176;2023-09-30T12:06:36;99268.38;;;19.31;60.39
49611;BME280;35515;48.766;9.176;2023-09-30T12:09:03;99271.25;;;19.36;61.48
49611;BME280;35515;48.766;9.176;2023-09-30T12:11:30;99266.81;;;19.35;61.78
49611;BME280;35515;48.766;9.176;2023-09-30T12:13:57;99276.09;;;19.46;61.61
49611;BME280;35515;48.766;9.176;2023-09-30T12:16:24;99268.88;;;19.57;61.21
49611;BME280;35515;48.766;9.176;2023-09-30T12:18:51;99264.44;;;19.67;61.09
49611;BME280;35515;48.766;9.176;2023-09-30T12:21:18;99260.69;;;19.74;59.82
49611;BME280;35515;48.766;9.176;2023-09-30T12:23:45;99272.84;;;19.61;61.58
49611;BME280;35515;48.766;9.176;2023-09-30T12:26:14;99266.13;;;19.57;59.50
49611;BME280;35515;48.766;9.176;2023-09-30T12:28:40;99257.97;;;19.62;57.12
49611;BME280;35515;48.766;9.176;2023-09-30T12:31:07;99268.97;;;19.62;56.33
49611;BME280;35515;48.766;9.176;2023-09-30T12:33:36;99266.13;;;19.57;57.19
49611;BME280;35515;48.766;9.176;2023-09-30T12:36:04;99267.97;;;19.51;58.62
49611;BME280;35515;48.766;9.176;2023-09-30T12:38:30;99262.03;;;19.42;57.29
49611;BME280;35515;48.766;9.176;2023-09-30T12:40:57;99255.69;;;19.42;58.64
49611;BME280;35515;48.766;9.176;2023-09-30T12:43:24;99255.44;;;19.43;55.89
49611;BME280;35515;48.766;9.176;2023-09-30T12:45:50;99250.44;;;19.40;58.71
49611;BME280;35515;48.766;9.176;2023-09-30T12:48:17;99244.91;;;19.52;58.13
49611;BME280;35515;48.766;9.176;2023-09-30T12:50:43;99252.88;;;19.53;59.11
49611;BME280;35515;48.766;9.176;2023-09-30T12:53:11;99252.16;;;19.58;59.88
49611;BME280;35515;48.766;9.176;2023-09-30T12:55:38;99251.25;;;19.69;59.78
49611;BME280;35515;48.766;9.176;2023-09-30T12:58:04;99249.13;;;19.71;58.99
49611;BME280;35515;48.766;9.176;2023-09-30T13:00:31;99254.88;;;19.70;59.00
49611;BME280;35515;48.766;9.176;2023-09-30T13:02:58;99248.66;;;19.63;59.70
49611;BME280;35515;48.766;9.176;2023-09-30T13:05:25;99246.06;;;19.56;60.29